Hasabi II — ZCPG3 — position and weather

sailwx.info

Track history (hours):
 
Tides and Currents Weather Stations Pressure Air Temp Water Temp Dewpoint Dewpoint Depression Visibility Wind Speed Wind Dir Waves Ship Positions

Hasabi II

Last reported at 2016-Mar-30 11:13 UTC. Time now 2016-May-05 18:03 UTC.
Position N 37°58' E 023°34'.
Warning: this ship's position is 36 days out of date.

Length 58 m; draft 3 m.

Type: Ship (hazmat cat C). MMSI: 319022000.

Date/timePositionNaut miles runAvg speedWind from/ knotsBaromVisibWave heightAir tempDewpointWater temp
2016-Mar-30 11:13N 37°58' E 023°34'2 2.7
2016-Mar-30 10:33N 37°56' E 023°35'9 9.1
2016-Mar-30 09:33N 37°47' E 023°35'10 9.9
2016-Mar-30 08:33N 37°37' E 023°34'1010.2
2016-Mar-30 07:33N 37°47' E 023°35'9 9.4
2016-Mar-30 06:33N 37°56' E 023°36'2 1.9
2016-Mar-30 05:33N 37°58' E 023°34'0 0.0
2016-Mar-30 04:33N 37°58' E 023°34'0 0.0
2016-Mar-30 03:33N 37°58' E 023°34'0 0.0
2016-Mar-30 02:33N 37°58' E 023°34'0 0.0
2016-Mar-30 01:33N 37°58' E 023°34'0 0.0
2016-Mar-30 00:33N 37°58' E 023°34'0 0.0
2016-Mar-29 23:33N 37°58' E 023°34'0 0.0
2016-Mar-29 22:33N 37°58' E 023°34'0 0.0
2016-Mar-29 21:33N 37°58' E 023°34'0 0.0
2016-Mar-29 20:33N 37°58' E 023°34'0 0.0
2016-Mar-29 19:32N 37°58' E 023°34'0 0.0
2016-Mar-29 18:33N 37°58' E 023°34'0 0.0
2016-Mar-29 17:33N 37°58' E 023°34'0 0.0
2016-Mar-29 16:33N 37°58' E 023°34'0 0.0
2016-Mar-29 15:33N 37°58' E 023°34'0 0.0
2016-Mar-29 14:33N 37°58' E 023°34'0 0.0
2016-Mar-29 13:33N 37°58' E 023°34'0 0.0
2016-Mar-29 12:33N 37°58' E 023°34'0 0.0
2016-Mar-29 11:33N 37°58' E 023°34'0 0.0
2016-Mar-29 10:33N 37°58' E 023°34'0 0.0
2016-Mar-29 09:33N 37°58' E 023°34'  
Track history (hours):
 
Tides and Currents Weather Stations Pressure Air Temp Water Temp Dewpoint Dewpoint Depression Visibility Wind Speed Wind Dir Waves Ship Positions

Hasabi II

Last reported at 2016-Mar-30 11:13 UTC. Time now 2016-May-05 18:03 UTC.
Position N 37°58' E 023°34'.
Warning: this ship's position is 36 days out of date.

Length 58 m; draft 3 m.

Type: Ship (hazmat cat C). MMSI: 319022000.

Date/timePositionNaut miles runAvg speedWind from/ knotsBaromVisibWave heightAir tempDewpointWater temp
2016-Mar-30 11:13N 37°58' E 023°34'2 2.7
2016-Mar-30 10:33N 37°56' E 023°35'9 9.1
2016-Mar-30 09:33N 37°47' E 023°35'10 9.9
2016-Mar-30 08:33N 37°37' E 023°34'1010.2
2016-Mar-30 07:33N 37°47' E 023°35'9 9.4
2016-Mar-30 06:33N 37°56' E 023°36'2 1.9
2016-Mar-30 05:33N 37°58' E 023°34'0 0.0
2016-Mar-30 04:33N 37°58' E 023°34'0 0.0
2016-Mar-30 03:33N 37°58' E 023°34'0 0.0
2016-Mar-30 02:33N 37°58' E 023°34'0 0.0
2016-Mar-30 01:33N 37°58' E 023°34'0 0.0
2016-Mar-30 00:33N 37°58' E 023°34'0 0.0
2016-Mar-29 23:33N 37°58' E 023°34'0 0.0
2016-Mar-29 22:33N 37°58' E 023°34'0 0.0
2016-Mar-29 21:33N 37°58' E 023°34'0 0.0
2016-Mar-29 20:33N 37°58' E 023°34'0 0.0
2016-Mar-29 19:32N 37°58' E 023°34'0 0.0
2016-Mar-29 18:33N 37°58' E 023°34'0 0.0
2016-Mar-29 17:33N 37°58' E 023°34'0 0.0
2016-Mar-29 16:33N 37°58' E 023°34'0 0.0
2016-Mar-29 15:33N 37°58' E 023°34'0 0.0
2016-Mar-29 14:33N 37°58' E 023°34'0 0.0
2016-Mar-29 13:33N 37°58' E 023°34'0 0.0
2016-Mar-29 12:33N 37°58' E 023°34'0 0.0
2016-Mar-29 11:33N 37°58' E 023°34'0 0.0
2016-Mar-29 10:33N 37°58' E 023°34'0 0.0
2016-Mar-29 09:33N 37°58' E 023°34'  

Dump ship's entire track history